Buechel, Kentucky
Current Conditions -  °F | °C
As of 10:53 AM on Thursday 23 Oct 2014 (Local Time) from KLOU Reporting Station
Clear Clear  
Wind Chill: 52°   Ceiling: Unl
Heat Index: 52°   Visibility: 10mi
Dew Point: 41°   Wind: 0mph
Humidity: 66%   Direction: NA
Pressure: 30.26"   Gusts: NA
Location:  38.1869°N, 85.6523°W
Report Text: KLOU 231453Z 00000KT 10SM CLR 11/05 A3026 RMK AO2 SLP249 T01110050 50000
Loading
Personal Weather Stations






























Interactive Weather Map New forecast layout! Learn more

10-Day Weather Forecast

Advertisements
Track Severe Weather on mobile